createdAt,value
2023-03-06T12:20:32.388Z,96360.91
2023-03-06T12:23:14.909Z,96358.41
2023-03-06T12:25:42.933Z,96353.91
2023-03-06T12:28:18.011Z,96347.78
2023-03-06T12:31:06.518Z,96344.84
2023-03-06T12:33:36.158Z,96343.59
2023-03-06T12:36:13.224Z,96332.31
2023-03-06T12:38:58.022Z,96336.03
2023-03-06T12:41:31.672Z,96336.03
2023-03-06T12:44:16.994Z,96324.97
2023-03-06T12:46:44.938Z,96327.69
2023-03-06T12:49:23.093Z,96326.94
2023-03-06T12:51:59.156Z,96321.44
2023-03-06T12:54:28.834Z,96320.16
2023-03-06T12:56:56.374Z,96319.25
2023-03-06T12:59:40.300Z,96317.16
2023-03-06T13:02:58.097Z,96317.13
2023-03-06T13:05:47.750Z,96312.13
2023-03-06T13:08:27.604Z,96302.53
2023-03-06T13:11:11.474Z,96304.72
2023-03-06T13:13:42.263Z,96303.41
2023-03-06T13:16:13.881Z,96299.38
2023-03-06T13:18:52.459Z,96294.66
2023-03-06T13:21:44.644Z,96290.47
2023-03-06T13:24:18.025Z,96287.13
2023-03-06T13:26:50.089Z,96294.84
2023-03-06T13:29:46.244Z,96290.13
2023-03-06T13:32:16.723Z,96286.31
2023-03-06T13:34:44.081Z,96292.31
2023-03-06T13:37:47.858Z,96295.84
2023-03-06T13:40:29.069Z,96285.25
2023-03-06T13:43:21.248Z,96283.50
2023-03-06T13:45:48.599Z,96283.78
2023-03-06T13:48:43.502Z,96277.59
2023-03-06T13:51:22.144Z,96276.88
2023-03-06T13:54:18.436Z,96275.06
2023-03-06T13:57:13.807Z,96276.19
2023-03-06T14:00:10.164Z,96273.88
2023-03-06T14:02:50.691Z,96278.78
2023-03-06T14:05:18.222Z,96273.75
2023-03-06T14:07:45.716Z,96268.47
2023-03-06T14:10:20.646Z,96269.16
2023-03-06T14:13:01.657Z,96267.34
2023-03-06T14:15:31.857Z,96272.84
2023-03-06T14:18:01.083Z,96266.41
2023-03-06T14:20:33.525Z,96263.41
2023-03-06T14:23:30.710Z,96262.78
2023-03-06T14:26:01.056Z,96255.00
2023-03-06T14:28:30.186Z,96253.44
2023-03-06T14:30:58.098Z,96252.44
2023-03-06T14:33:31.329Z,96251.44
2023-03-06T14:36:00.728Z,96254.94
2023-03-06T14:38:28.501Z,96249.53
2023-03-06T14:40:55.851Z,96254.81
2023-03-06T14:43:24.106Z,96244.63
2023-03-06T14:45:56.663Z,96239.91
2023-03-06T14:48:24.976Z,96240.41
2023-03-06T14:50:53.759Z,96235.22
2023-03-06T14:53:23.633Z,96241.00
2023-03-06T14:55:51.804Z,96244.13
2023-03-06T14:58:20.352Z,96240.41
2023-03-06T15:00:49.508Z,96238.59
2023-03-06T15:03:19.391Z,96241.09
2023-03-06T15:05:46.644Z,96237.28
2023-03-06T15:08:14.443Z,96243.53
2023-03-06T15:10:41.649Z,96240.56
2023-03-06T15:13:09.838Z,96244.06
2023-03-06T15:15:37.093Z,96241.81
2023-03-06T15:18:30.585Z,96238.22
2023-03-06T15:21:07.038Z,96242.06
2023-03-06T15:23:38.393Z,96233.91
2023-03-06T15:26:19.853Z,96230.28
2023-03-06T15:28:59.824Z,96232.47
2023-03-06T15:31:34.807Z,96224.84
2023-03-06T15:34:18.910Z,96234.47
2023-03-06T15:36:46.477Z,96233.78
2023-03-06T15:39:27.516Z,96239.91
2023-03-06T15:41:56.965Z,96238.69
2023-03-06T15:44:24.298Z,96230.59
2023-03-06T15:46:53.899Z,96234.41
2023-03-06T15:49:28.168Z,96229.09
2023-03-06T15:51:55.491Z,96228.03
2023-03-06T15:54:22.745Z,96229.06
2023-03-06T15:56:50.040Z,96228.13
2023-03-06T15:59:20.970Z,96227.66
2023-03-06T16:01:48.306Z,96223.13
2023-03-06T16:04:15.628Z,96224.75
2023-03-06T16:06:44.453Z,96220.66
2023-03-06T16:09:11.776Z,96223.38
2023-03-06T16:11:44.040Z,96228.81
2023-03-06T16:14:17.757Z,96218.25
2023-03-06T16:16:45.136Z,96220.94
2023-03-06T16:19:25.306Z,96218.31
2023-03-06T16:21:55.717Z,96227.53
2023-03-06T16:24:23.107Z,96221.41
2023-03-06T16:26:50.995Z,96232.81
2023-03-06T16:29:18.310Z,96223.34
2023-03-06T16:31:45.618Z,96236.19
2023-03-06T16:34:12.857Z,96230.22
2023-03-06T16:36:40.150Z,96236.22
2023-03-06T16:39:10.786Z,96236.22
2023-03-06T16:41:38.059Z,96235.44
2023-03-06T16:44:05.523Z,96238.34
2023-03-06T16:46:32.868Z,96253.34
2023-03-06T16:49:00.147Z,96261.13
2023-03-06T16:51:27.549Z,96250.31
2023-03-06T16:53:54.800Z,96269.59
2023-03-06T16:56:23.581Z,96259.03
2023-03-06T16:58:50.866Z,96259.78
2023-03-06T17:01:18.641Z,96267.88
2023-03-06T17:03:45.902Z,96266.88
2023-03-06T17:06:14.170Z,96272.31
2023-03-06T17:08:41.436Z,96261.38
2023-03-06T17:11:08.685Z,96270.84
2023-03-06T17:13:37.386Z,96272.38
2023-03-06T17:16:04.977Z,96273.19
2023-03-06T17:18:33.651Z,96281.50
2023-03-06T17:21:01.773Z,96287.91
2023-03-06T17:23:32.003Z,96283.97
2023-03-06T17:26:06.621Z,96285.28
2023-03-06T17:28:33.986Z,96296.38
2023-03-06T17:31:02.982Z,96292.38
2023-03-06T17:33:30.294Z,96291.59
2023-03-06T17:36:00.651Z,96290.81
2023-03-06T17:38:27.795Z,96305.47
2023-03-06T17:40:54.941Z,96311.84
2023-03-06T17:43:22.211Z,96305.31
2023-03-06T17:45:49.454Z,96308.69
2023-03-06T17:48:18.161Z,96322.13
2023-03-06T17:50:53.057Z,96328.06
2023-03-06T17:53:20.530Z,96338.22
2023-03-06T17:55:47.769Z,96336.28
2023-03-06T17:58:14.988Z,96334.91
2023-03-06T18:00:42.214Z,96334.34
2023-03-06T18:03:09.461Z,96340.16
2023-03-06T18:05:38.222Z,96348.03
2023-03-06T18:08:05.663Z,96358.59
2023-03-06T18:10:32.949Z,96352.81
2023-03-06T18:13:00.130Z,96359.38
2023-03-06T18:15:27.671Z,96360.50
2023-03-06T18:17:55.179Z,96368.78
2023-03-06T18:20:22.426Z,96374.72
2023-03-06T18:22:51.166Z,96377.31
2023-03-06T18:25:18.565Z,96375.31
2023-03-06T18:27:45.803Z,96372.66
2023-03-06T18:30:13.909Z,96375.56
2023-03-06T18:32:41.309Z,96379.78
2023-03-06T18:35:09.319Z,96389.38
2023-03-06T18:37:36.534Z,96392.00
2023-03-06T18:40:06.382Z,96396.94
2023-03-06T18:42:33.648Z,96401.00
2023-03-06T18:45:00.982Z,96399.44
2023-03-06T18:47:28.258Z,96397.47
2023-03-06T18:49:55.490Z,96406.88
2023-03-06T18:52:22.629Z,96412.72
2023-03-06T18:54:49.923Z,96416.00
2023-03-06T18:57:18.569Z,96414.69
2023-03-06T18:59:45.853Z,96423.00
2023-03-06T19:02:13.149Z,96423.75
2023-03-06T19:15:23.182Z,96436.22
2023-03-06T19:17:50.428Z,96434.13
2023-03-06T19:20:17.881Z,96436.03
2023-03-06T19:22:47.925Z,96447.66
2023-03-06T19:44:10.008Z,96453.53
2023-03-06T19:46:37.260Z,96446.31
2023-03-06T19:49:04.753Z,96453.13
2023-03-06T19:51:31.945Z,96449.47
2023-03-06T19:53:59.169Z,96451.28
2023-03-06T19:56:27.026Z,96460.25
2023-03-06T19:58:54.142Z,96459.13
2023-03-06T20:01:23.576Z,96469.00
2023-03-06T20:03:52.363Z,96472.59
2023-03-06T20:06:20.028Z,96465.13
2023-03-06T20:08:47.592Z,96460.25
2023-03-06T20:11:18.739Z,96462.63
2023-03-06T20:13:47.306Z,96463.31
2023-03-06T20:16:14.876Z,96463.84
2023-03-06T20:18:43.778Z,96467.91
2023-03-06T20:21:10.953Z,96473.06
2023-03-06T20:23:38.221Z,96470.00
2023-03-06T20:26:05.981Z,96467.59
2023-03-06T20:28:33.147Z,96466.44
2023-03-06T20:31:06.361Z,96468.88
2023-03-06T20:33:33.546Z,96468.50
2023-03-06T20:36:02.296Z,96463.63
2023-03-06T20:38:29.456Z,96471.25
2023-03-06T20:40:56.680Z,96465.19
2023-03-06T20:43:23.853Z,96469.31
2023-03-06T20:45:58.339Z,96464.06
2023-03-06T20:48:25.570Z,96457.19
2023-03-06T20:51:03.771Z,96465.66
2023-03-06T20:53:30.934Z,96467.13
2023-03-06T20:55:58.232Z,96463.41
